createdAt,value
2022-11-23T00:05:06.397Z,55.2
2022-11-23T00:10:25.091Z,54.9
2022-11-23T00:15:43.719Z,54.6
2022-11-23T00:21:02.200Z,55.6
2022-11-23T00:26:20.984Z,55.4
2022-11-23T00:31:39.157Z,54.9
2022-11-23T00:36:57.396Z,55
2022-11-23T00:42:16.249Z,55.4
2022-11-23T00:47:34.712Z,55.4
2022-11-23T00:52:53.206Z,55.2
2022-11-23T00:58:11.702Z,54.6
2022-11-23T01:03:30.161Z,55.3
2022-11-23T01:08:48.088Z,55.2
2022-11-23T01:14:06.608Z,55
2022-11-23T01:19:24.784Z,54.4
2022-11-23T01:24:43.268Z,54.5
2022-11-23T01:30:01.212Z,54.1
2022-11-23T01:35:19.676Z,54.1
2022-11-23T01:40:38.156Z,54.9
2022-11-23T01:45:56.661Z,54.7
2022-11-23T01:51:14.848Z,54.7
2022-11-23T01:56:33.667Z,54.9
2022-11-23T02:01:51.897Z,54.4
2022-11-23T02:07:10.841Z,54.9
2022-11-23T02:12:29.305Z,54.5
2022-11-23T02:17:47.567Z,55.2
2022-11-23T02:23:05.765Z,54.3
2022-11-23T02:28:24.258Z,54.9
2022-11-23T02:33:43.048Z,54.9
2022-11-23T02:39:01.249Z,55.1
2022-11-23T02:44:20.009Z,54.6
2022-11-23T02:49:38.538Z,54.6
2022-11-23T02:54:57.016Z,54.2
2022-11-23T03:00:15.502Z,53.9
2022-11-23T03:05:33.736Z,54.5
2022-11-23T03:10:52.205Z,53.9
2022-11-23T03:16:10.691Z,54.2
2022-11-23T03:21:29.589Z,54.1
2022-11-23T03:26:48.036Z,54.8
2022-11-23T03:32:06.519Z,55
2022-11-23T03:37:25.037Z,55
2022-11-23T03:42:43.223Z,54.3
2022-11-23T03:48:01.165Z,55.2
2022-11-23T03:53:19.977Z,54.4
2022-11-23T03:58:38.438Z,54.3
2022-11-23T04:03:56.929Z,54.1
2022-11-23T04:09:15.453Z,54
2022-11-23T04:14:33.912Z,54.1
2022-11-23T04:19:52.434Z,54.2
2022-11-23T04:25:10.946Z,54
2022-11-23T04:30:28.875Z,54
2022-11-23T04:35:47.081Z,54.3
2022-11-23T04:41:06.492Z,54.8
2022-11-23T04:46:24.947Z,54.1
2022-11-23T04:51:43.442Z,54
2022-11-23T04:57:01.955Z,54.1
2022-11-23T05:02:20.419Z,55
2022-11-23T05:07:38.935Z,54.8
2022-11-23T05:12:57.529Z,54.5
2022-11-23T05:18:15.446Z,54.8
2022-11-23T05:23:33.671Z,54.9
2022-11-23T05:28:51.913Z,55.1
2022-11-23T05:34:10.379Z,54.9
2022-11-23T05:39:28.292Z,55.4
2022-11-23T05:44:46.854Z,54.8
2022-11-23T05:50:05.311Z,52.9
2022-11-23T05:55:23.809Z,52.6
2022-11-23T06:00:41.745Z,54
2022-11-23T06:06:00.489Z,53.5
2022-11-23T06:11:18.686Z,54.6
2022-11-23T06:16:37.488Z,54.4
2022-11-23T06:21:55.958Z,53.7
2022-11-23T06:27:18.765Z,53.7
2022-11-23T06:32:36.976Z,53.9
2022-11-23T06:37:55.752Z,54.3
2022-11-23T06:43:13.967Z,53.8
2022-11-23T06:48:32.562Z,54
2022-11-23T06:53:51.019Z,54.4
2022-11-23T06:59:09.516Z,54.3
2022-11-23T07:04:28.020Z,53.9
2022-11-23T07:09:46.558Z,55
2022-11-23T07:15:04.752Z,54.8
2022-11-23T07:20:23.552Z,51.1
2022-11-23T07:25:42.291Z,53.3
2022-11-23T07:31:00.798Z,52.7
2022-11-23T07:36:19.298Z,53.5
2022-11-23T07:41:38.074Z,53.2
2022-11-23T07:46:56.814Z,54
2022-11-23T07:52:15.606Z,54.2
2022-11-23T07:57:34.323Z,53.6
2022-11-23T08:03:29.653Z,54.2
2022-11-23T08:08:48.386Z,53.8
2022-11-23T08:14:06.607Z,53.4
2022-11-23T08:19:24.811Z,53.6
2022-11-23T08:24:43.300Z,54.3
2022-11-23T08:30:01.771Z,53.4
2022-11-23T08:35:20.523Z,53.8
2022-11-23T08:40:26.693Z,53.2
2022-11-23T08:45:45.200Z,52.9
2022-11-23T08:51:03.398Z,52.8
2022-11-23T08:56:22.221Z,52.4
2022-11-23T09:01:40.789Z,53.1
2022-11-23T09:06:59.013Z,53.2
2022-11-23T09:12:17.242Z,53.1
2022-11-23T09:17:35.721Z,52.8
2022-11-23T09:22:53.644Z,52.5
2022-11-23T09:28:12.159Z,52
2022-11-23T09:33:30.891Z,52
2022-11-23T09:38:58.117Z,52.6
2022-11-23T09:44:01.052Z,52.6
2022-11-23T09:49:19.576Z,51.8
2022-11-23T09:54:38.071Z,52.4
2022-11-23T09:59:56.586Z,52.3
2022-11-23T10:04:59.437Z,52.5
2022-11-23T10:10:17.977Z,52.6
2022-11-23T10:15:36.793Z,51.7
2022-11-23T10:20:55.265Z,51.7
2022-11-23T10:26:13.485Z,52.4
2022-11-23T10:31:32.295Z,52.6
2022-11-23T10:36:50.748Z,52.5
2022-11-23T10:42:09.507Z,52.9
2022-11-23T10:47:33.838Z,52.8
2022-11-23T10:52:52.012Z,53.4
2022-11-23T10:58:10.545Z,53.3
2022-11-23T11:03:28.787Z,53.1
2022-11-23T11:08:47.280Z,53.1
2022-11-23T11:14:05.758Z,53.2
2022-11-23T11:19:24.027Z,53.3
2022-11-23T11:24:42.517Z,53.2
2022-11-23T11:30:01.298Z,53.2
2022-11-23T11:35:22.266Z,52.9
2022-11-23T11:40:40.760Z,52.3
2022-11-23T11:46:30.822Z,52.1
2022-11-23T11:51:49.435Z,52.2
2022-11-23T11:57:07.931Z,52.4
2022-11-23T12:02:26.430Z,52.9
2022-11-23T12:07:44.928Z,52.4
2022-11-23T12:13:03.479Z,53
2022-11-23T12:18:21.952Z,52.4
2022-11-23T12:23:40.476Z,53
2022-11-23T12:28:58.944Z,52.5
2022-11-23T12:34:17.436Z,52.5
2022-11-23T12:39:35.945Z,52.3
2022-11-23T12:44:54.733Z,52.9
2022-11-23T12:50:13.517Z,52.5
2022-11-23T12:55:32.302Z,53.1
2022-11-23T13:00:50.744Z,52.7
2022-11-23T13:06:09.252Z,52.7
2022-11-23T13:11:27.220Z,53
2022-11-23T13:16:46.207Z,52.6
2022-11-23T13:22:04.558Z,52.5
2022-11-23T13:27:32.293Z,52.6
2022-11-23T13:32:51.184Z,53.2
2022-11-23T13:38:09.661Z,54.2
2022-11-23T13:43:28.209Z,54.1
2022-11-23T13:49:02.227Z,53.2
2022-11-23T13:54:20.709Z,54.2
2022-11-23T13:59:39.240Z,53.5
2022-11-23T14:04:57.685Z,53.8
2022-11-23T14:10:15.905Z,53.2
2022-11-23T14:15:34.148Z,53.5
2022-11-23T14:20:52.643Z,54
2022-11-23T14:26:11.435Z,53.2
2022-11-23T14:31:29.993Z,53.3
2022-11-23T14:36:48.478Z,51.7
2022-11-23T14:42:06.997Z,51.1
2022-11-23T14:47:26.039Z,52.1
2022-11-23T14:52:44.282Z,53
2022-11-23T14:58:05.804Z,52.4
2022-11-23T15:03:54.120Z,53.2
2022-11-23T15:09:12.050Z,53.5
2022-11-23T15:14:30.909Z,53.7
2022-11-23T15:19:49.527Z,53.8
2022-11-23T15:25:08.287Z,53.1
2022-11-23T15:30:27.855Z,54.1
2022-11-23T15:35:46.643Z,53.9
2022-11-23T15:41:05.167Z,53.2
2022-11-23T15:46:23.568Z,53.1
2022-11-23T15:51:42.136Z,54.1
2022-11-23T15:57:00.667Z,54
2022-11-23T16:02:19.720Z,53.8
2022-11-23T16:07:38.697Z,54
2022-11-23T16:12:57.035Z,53.9
2022-11-23T16:18:16.312Z,53.2
2022-11-23T16:23:34.849Z,54
2022-11-23T16:28:53.617Z,54.2
2022-11-23T16:34:11.822Z,53.3
2022-11-23T16:39:30.087Z,54
2022-11-23T16:44:48.331Z,53.2
2022-11-23T16:50:06.832Z,53.3
2022-11-23T16:55:25.351Z,53.5
2022-11-23T17:00:43.517Z,53.2
2022-11-23T17:06:01.727Z,53.3
2022-11-23T17:11:20.001Z,53.4
2022-11-23T17:16:38.669Z,54.1
2022-11-23T17:21:57.556Z,53.6
2022-11-23T17:27:16.037Z,53.3
2022-11-23T17:32:34.362Z,53.3
2022-11-23T17:37:52.825Z,53.3
2022-11-23T17:43:10.791Z,53.3
2022-11-23T17:48:28.965Z,53
2022-11-23T17:53:47.426Z,52.9
2022-11-23T17:59:06.228Z,53.3
2022-11-23T18:04:24.703Z,53.4
2022-11-23T18:09:42.598Z,54
2022-11-23T18:15:00.788Z,53.6
2022-11-23T18:20:19.495Z,54.2
2022-11-23T18:25:37.983Z,54.2
2022-11-23T18:30:56.756Z,54.2
2022-11-23T18:36:15.297Z,53.4
2022-11-23T18:41:33.795Z,55.1
2022-11-23T18:46:52.954Z,54.7
2022-11-23T18:52:11.502Z,54.4
2022-11-23T18:57:29.701Z,54.2
2022-11-23T19:02:47.936Z,54.4
2022-11-23T19:08:06.137Z,54
2022-11-23T19:13:24.633Z,55.2
2022-11-23T19:18:43.126Z,54.9
2022-11-23T19:24:01.594Z,54.8
2022-11-23T19:29:25.325Z,54.6
2022-11-23T19:34:43.720Z,55.4
2022-11-23T19:40:02.462Z,55.5
2022-11-23T19:45:20.941Z,54.4
2022-11-23T19:50:39.744Z,55.1
2022-11-23T19:55:58.222Z,54.3
2022-11-23T20:01:16.471Z,54.9
2022-11-23T20:06:35.076Z,54.6
2022-11-23T20:11:53.550Z,55
2022-11-23T20:17:12.030Z,54.8
2022-11-23T20:22:30.547Z,54.2
2022-11-23T20:27:49.306Z,54.2
2022-11-23T20:33:07.779Z,54.2
2022-11-23T20:38:26.298Z,54.8
2022-11-23T20:43:44.747Z,55.1
2022-11-23T20:49:03.521Z,55.1
2022-11-23T20:54:22.047Z,55.2
2022-11-23T20:59:40.527Z,54.6
2022-11-23T21:04:59.016Z,54.9
2022-11-23T21:10:16.987Z,54.8
2022-11-23T21:15:35.156Z,55
2022-11-23T21:20:53.673Z,54.6
2022-11-23T21:26:12.549Z,53.7
2022-11-23T21:31:31.025Z,53.5
2022-11-23T21:36:49.500Z,53.8
2022-11-23T21:42:08.026Z,53.3
2022-11-23T21:47:26.787Z,52.9
2022-11-23T21:52:45.542Z,52.4
2022-11-23T21:58:04.083Z,53
2022-11-23T22:03:22.284Z,53.6
2022-11-23T22:08:40.680Z,54.2
2022-11-23T22:13:58.903Z,55.1
2022-11-23T22:19:17.392Z,55.1
2022-11-23T22:24:36.556Z,55.2
2022-11-23T22:29:55.045Z,54.8
2022-11-23T22:35:13.528Z,55.2
2022-11-23T22:40:32.025Z,54.4
2022-11-23T22:45:50.554Z,54.5
2022-11-23T22:51:08.754Z,54.2
2022-11-23T22:56:27.517Z,54.5
2022-11-23T23:01:46.305Z,54.4
2022-11-23T23:07:04.489Z,54.8
2022-11-23T23:12:22.696Z,55.6
2022-11-23T23:17:40.928Z,55.3
2022-11-23T23:22:59.120Z,54.4
2022-11-23T23:28:17.611Z,54.5
2022-11-23T23:33:36.407Z,54.8
2022-11-23T23:38:54.868Z,54.7
2022-11-23T23:44:12.810Z,55.4
2022-11-23T23:49:30.916Z,54.8
2022-11-23T23:54:49.089Z,54.6
